createdAt,value
2022-08-28T00:01:44.168Z,99263.81
2022-08-28T00:04:12.426Z,99273.47
2022-08-28T00:06:41.043Z,99265.72
2022-08-28T00:09:09.900Z,99266.03
2022-08-28T00:11:40.769Z,99262.13
2022-08-28T00:14:10.606Z,99256.66
2022-08-28T00:16:40.995Z,99251.63
2022-08-28T00:19:11.096Z,99247.69
2022-08-28T00:21:39.832Z,99244.13
2022-08-28T00:24:08.133Z,99247.66
2022-08-28T00:26:53.975Z,99250.00
2022-08-28T00:29:22.917Z,99244.56
2022-08-28T00:31:53.177Z,99238.38
2022-08-28T00:34:21.648Z,99241.50
2022-08-28T00:37:02.444Z,99236.06
2022-08-28T00:39:31.498Z,99239.94
2022-08-28T00:42:00.141Z,99241.84
2022-08-28T00:44:29.563Z,99243.00
2022-08-28T00:47:00.923Z,99234.94
2022-08-28T00:49:30.353Z,99241.19
2022-08-28T00:52:11.830Z,99240.13
2022-08-28T00:54:45.682Z,99235.53
2022-08-28T01:00:20.266Z,99236.78
2022-08-28T01:02:50.231Z,99239.53
2022-08-28T01:05:19.110Z,99234.13
2022-08-28T01:07:48.593Z,99231.84
2022-08-28T01:10:18.749Z,99233.09
2022-08-28T01:12:48.148Z,99229.28
2022-08-28T01:15:18.601Z,99229.72
2022-08-28T01:17:49.591Z,99220.44
2022-08-28T01:20:21.280Z,99229.78
2022-08-28T01:22:54.403Z,99227.44
2022-08-28T01:25:25.951Z,99223.13
2022-08-28T01:27:54.374Z,99221.94
2022-08-28T01:30:23.957Z,99218.03
2022-08-28T01:32:54.563Z,99214.47
2022-08-28T01:35:25.975Z,99220.22
2022-08-28T01:37:54.968Z,99216.69
2022-08-28T01:40:27.403Z,99214.63
2022-08-28T01:42:56.206Z,99213.00
2022-08-28T01:45:26.527Z,99208.63
2022-08-28T01:47:57.560Z,99208.22
2022-08-28T01:50:26.108Z,99206.25
2022-08-28T01:52:55.191Z,99206.94
2022-08-28T01:55:25.719Z,99204.22
2022-08-28T01:57:55.675Z,99203.44
2022-08-28T02:00:29.049Z,99205.00
2022-08-28T02:02:58.799Z,99198.81
2022-08-28T02:05:28.748Z,99207.72
2022-08-28T02:07:57.544Z,99204.59
2022-08-28T02:10:28.973Z,99204.22
2022-08-28T02:12:59.035Z,99209.66
2022-08-28T02:15:29.519Z,99209.22
2022-08-28T02:17:58.218Z,99201.09
2022-08-28T02:20:27.344Z,99204.22
2022-08-28T02:22:55.836Z,99208.03
2022-08-28T02:25:24.340Z,99206.09
2022-08-28T02:27:54.259Z,99197.59
2022-08-28T02:30:22.840Z,99198.00
2022-08-28T02:32:51.476Z,99196.47
2022-08-28T02:35:20.473Z,99194.47
2022-08-28T02:37:50.118Z,99188.25
2022-08-28T02:40:20.041Z,99191.03
2022-08-28T02:42:48.544Z,99189.47
2022-08-28T02:45:20.504Z,99193.75
2022-08-28T02:47:49.045Z,99196.09
2022-08-28T02:50:19.889Z,99200.38
2022-08-28T02:52:49.293Z,99199.66
2022-08-28T02:55:18.766Z,99191.16
2022-08-28T02:57:47.577Z,99194.25
2022-08-28T03:00:17.742Z,99190.72
2022-08-28T03:02:48.024Z,99184.53
2022-08-28T03:05:18.227Z,99186.81
2022-08-28T03:07:46.467Z,99190.38
2022-08-28T03:10:15.369Z,99189.66
2022-08-28T03:12:43.892Z,99188.88
2022-08-28T03:15:13.130Z,99191.22
2022-08-28T03:17:41.913Z,99186.50
2022-08-28T03:20:13.498Z,99188.88
2022-08-28T03:22:59.466Z,99189.22
2022-08-28T03:25:28.087Z,99183.88
2022-08-28T03:27:56.992Z,99185.50
2022-08-28T03:30:25.712Z,99178.13
2022-08-28T03:32:54.334Z,99185.13
2022-08-28T03:35:23.872Z,99180.00
2022-08-28T03:37:52.285Z,99184.22
2022-08-28T03:40:21.704Z,99172.22
2022-08-28T03:42:53.569Z,99180.34
2022-08-28T03:45:22.220Z,99181.22
2022-08-28T03:47:51.704Z,99180.50
2022-08-28T03:50:20.137Z,99185.22
2022-08-28T03:52:49.856Z,99181.41
2022-08-28T03:55:19.781Z,99177.56
2022-08-28T03:57:48.572Z,99172.94
2022-08-28T04:00:17.419Z,99173.03
2022-08-28T04:02:46.387Z,99168.38
2022-08-28T04:05:14.960Z,99175.00
2022-08-28T04:07:43.394Z,99174.31
2022-08-28T04:10:13.872Z,99177.84
2022-08-28T04:12:42.248Z,99180.59
2022-08-28T04:15:38.829Z,99186.13
2022-08-28T04:18:08.252Z,99184.13
2022-08-28T04:20:36.673Z,99188.50
2022-08-28T04:23:06.113Z,99174.91
2022-08-28T04:25:36.278Z,99182.72
2022-08-28T04:28:05.044Z,99175.09
2022-08-28T04:30:33.385Z,99181.47
2022-08-28T04:33:08.516Z,99167.97
2022-08-28T04:35:37.019Z,99174.63
2022-08-28T04:38:06.022Z,99179.00
2022-08-28T04:40:40.425Z,99184.13
2022-08-28T04:43:09.480Z,99185.31
2022-08-28T04:45:41.531Z,99175.59
2022-08-28T04:48:10.507Z,99187.19
2022-08-28T04:50:42.047Z,99181.75
2022-08-28T04:53:10.382Z,99182.59
2022-08-28T04:55:53.768Z,99186.16
2022-08-28T04:58:24.100Z,99178.84
2022-08-28T05:00:53.616Z,99177.66
2022-08-28T05:03:22.758Z,99176.22
2022-08-28T05:05:52.746Z,99175.94
2022-08-28T05:08:22.192Z,99173.63
2022-08-28T05:10:53.693Z,99178.38
2022-08-28T05:13:22.969Z,99170.59
2022-08-28T05:15:52.348Z,99169.53
2022-08-28T05:18:22.934Z,99171.09
2022-08-28T05:20:51.096Z,99167.19
2022-08-28T05:23:19.841Z,99162.88
2022-08-28T05:25:52.420Z,99160.13
2022-08-28T05:28:20.908Z,99155.81
2022-08-28T05:30:49.128Z,99151.91
2022-08-28T05:33:17.920Z,99148.00
2022-08-28T05:35:47.831Z,99147.59
2022-08-28T05:38:17.151Z,99150.31
2022-08-28T05:40:46.240Z,99141.66
2022-08-28T05:43:16.801Z,99141.19
2022-08-28T05:45:45.774Z,99142.31
2022-08-28T05:48:14.855Z,99142.25
2022-08-28T05:50:47.476Z,99138.75
2022-08-28T05:53:17.454Z,99132.22
2022-08-28T05:55:51.636Z,99132.72
2022-08-28T05:58:32.009Z,99130.53
2022-08-28T06:01:08.473Z,99134.19
2022-08-28T06:03:37.667Z,99122.19
2022-08-28T06:06:07.101Z,99124.97
2022-08-28T06:08:35.510Z,99120.47
2022-08-28T06:11:05.446Z,99123.25
2022-08-28T06:13:37.850Z,99123.34
2022-08-28T06:16:08.041Z,99124.28
2022-08-28T06:18:36.791Z,99113.06
2022-08-28T06:21:05.266Z,99119.28
2022-08-28T06:23:33.654Z,99118.97
2022-08-28T06:26:02.434Z,99119.53
2022-08-28T06:28:30.916Z,99119.69
2022-08-28T06:31:23.393Z,99117.09
2022-08-28T06:33:52.155Z,99125.75
2022-08-28T06:36:20.754Z,99123.84
2022-08-28T06:38:49.585Z,99122.34
2022-08-28T06:41:18.955Z,99119.69
2022-08-28T06:43:47.131Z,99121.72
2022-08-28T06:46:19.969Z,99120.56
2022-08-28T06:48:48.369Z,99119.41
2022-08-28T06:51:17.267Z,99117.88
2022-08-28T06:53:46.577Z,99114.38
2022-08-28T06:56:26.793Z,99118.66
2022-08-28T06:59:04.534Z,99118.34
2022-08-28T07:01:41.381Z,99112.53
2022-08-28T07:04:11.324Z,99113.31
2022-08-28T07:06:41.364Z,99109.03
2022-08-28T07:09:11.421Z,99117.22
2022-08-28T07:11:40.870Z,99116.81
2022-08-28T07:14:10.348Z,99112.91
2022-08-28T07:16:41.211Z,99117.97
2022-08-28T07:19:12.126Z,99120.28
2022-08-28T07:21:42.011Z,99116.31
2022-08-28T07:24:11.200Z,99116.69
2022-08-28T07:26:42.432Z,99113.94
2022-08-28T07:29:11.783Z,99115.09
2022-08-28T07:31:43.786Z,99114.72
2022-08-28T07:34:13.471Z,99116.72
2022-08-28T07:36:42.365Z,99113.94
2022-08-28T07:39:11.652Z,99119.41
2022-08-28T07:41:43.351Z,99115.84
2022-08-28T07:44:30.492Z,99122.50
2022-08-28T07:47:02.655Z,99118.97
2022-08-28T07:49:31.748Z,99116.59
2022-08-28T07:52:00.569Z,99119.28
2022-08-28T07:54:30.191Z,99120.47
2022-08-28T07:56:59.321Z,99117.72
2022-08-28T07:59:36.614Z,99114.94
2022-08-28T08:02:08.365Z,99112.56
2022-08-28T08:04:37.397Z,99117.59
2022-08-28T08:07:06.204Z,99111.63
2022-08-28T08:09:38.494Z,99114.28
2022-08-28T08:12:10.404Z,99113.78
2022-08-28T08:14:39.118Z,99117.84
2022-08-28T08:17:10.335Z,99119.50
2022-08-28T08:19:38.935Z,99116.94
2022-08-28T08:22:08.251Z,99116.34
2022-08-28T08:24:36.777Z,99119.94
2022-08-28T08:27:07.015Z,99119.63
2022-08-28T08:29:38.018Z,99124.25
2022-08-28T08:32:08.582Z,99123.84
2022-08-28T08:34:40.343Z,99112.69
2022-08-28T08:37:09.526Z,99116.75
2022-08-28T08:39:39.211Z,99107.50
2022-08-28T08:42:10.250Z,99115.47
2022-08-28T08:44:41.564Z,99115.00
2022-08-28T08:47:14.973Z,99110.47
2022-08-28T08:50:00.179Z,99117.53
2022-08-28T08:52:41.767Z,99112.88
2022-08-28T08:55:26.241Z,99110.91
2022-08-28T08:58:09.231Z,99102.72
2022-08-28T09:00:48.120Z,99102.84
2022-08-28T09:03:22.765Z,99106.88
2022-08-28T09:05:55.270Z,99103.44
2022-08-28T09:08:28.506Z,99092.56
2022-08-28T09:11:02.491Z,99104.47
2022-08-28T09:13:36.238Z,99099.59
2022-08-28T09:16:14.752Z,99094.00
2022-08-28T09:18:59.057Z,99093.81
2022-08-28T09:21:35.522Z,99094.41
2022-08-28T09:24:10.831Z,99091.72
2022-08-28T09:26:45.799Z,99092.22
2022-08-28T09:29:33.376Z,99104.19
2022-08-28T09:32:22.205Z,99100.88
2022-08-28T09:35:12.450Z,99098.31
2022-08-28T09:37:44.216Z,99097.75
2022-08-28T09:40:18.245Z,99099.28
2022-08-28T09:43:18.257Z,99093.97
2022-08-28T09:45:48.786Z,99100.03
2022-08-28T09:48:22.147Z,99091.34
2022-08-28T09:51:07.189Z,99093.81
2022-08-28T09:53:40.527Z,99088.59
2022-08-28T09:56:17.068Z,99083.09
2022-08-28T09:58:46.555Z,99085.88
2022-08-28T10:01:25.771Z,99084.97
2022-08-28T10:04:00.398Z,99071.56
2022-08-28T10:06:32.738Z,99084.31
2022-08-28T10:09:11.713Z,99076.88
2022-08-28T10:11:44.569Z,99079.34
2022-08-28T10:14:18.921Z,99077.09
2022-08-28T10:16:55.213Z,99082.19
2022-08-28T10:19:30.399Z,99076.09
2022-08-28T10:22:05.042Z,99078.88
2022-08-28T10:24:44.324Z,99081.69
2022-08-28T10:27:20.963Z,99085.38
2022-08-28T10:29:55.687Z,99080.91
2022-08-28T10:32:35.598Z,99080.78
2022-08-28T10:35:08.795Z,99077.03
2022-08-28T10:37:47.166Z,99074.47
2022-08-28T10:40:19.981Z,99072.09
2022-08-28T10:42:52.007Z,99074.41
2022-08-28T10:45:24.657Z,99073.97
2022-08-28T10:47:53.899Z,99067.66
2022-08-28T10:50:25.945Z,99074.94
2022-08-28T10:52:58.231Z,99072.63
2022-08-28T10:55:34.899Z,99070.09
2022-08-28T10:58:24.037Z,99066.06
2022-08-28T11:00:57.868Z,99062.88
2022-08-28T11:03:36.423Z,99061.50
2022-08-28T11:06:13.820Z,99062.81
2022-08-28T11:08:42.790Z,99056.63
2022-08-28T11:11:16.359Z,99049.97
2022-08-28T11:13:57.566Z,99046.44
2022-08-28T11:16:28.588Z,99041.59
2022-08-28T11:19:17.911Z,99039.81
2022-08-28T11:24:44.552Z,99033.75
2022-08-28T11:27:36.117Z,99030.38
2022-08-28T11:30:25.965Z,99026.97
2022-08-28T11:33:10.069Z,99021.38
2022-08-28T11:35:42.470Z,99026.94
2022-08-28T11:38:18.416Z,99010.63
2022-08-28T11:40:53.652Z,99020.81
2022-08-28T11:43:34.962Z,99013.25
2022-08-28T11:46:26.876Z,99009.00
2022-08-28T11:48:58.429Z,99008.47
2022-08-28T11:51:37.482Z,99006.28
2022-08-28T11:54:13.157Z,98998.56
2022-08-28T11:56:51.676Z,99000.69
2022-08-28T11:59:39.718Z,99000.88
2022-08-28T12:02:28.243Z,99001.00
2022-08-28T12:04:59.151Z,98997.69
2022-08-28T12:07:36.068Z,98990.22
2022-08-28T12:10:05.468Z,98995.41
2022-08-28T12:12:54.585Z,98996.03
2022-08-28T12:15:38.866Z,98988.69
2022-08-28T12:18:09.389Z,98985.84
2022-08-28T12:20:56.358Z,98993.59
2022-08-28T12:23:38.954Z,98993.63
2022-08-28T12:26:10.273Z,98991.19
2022-08-28T12:28:47.274Z,98990.03
2022-08-28T12:31:45.334Z,98995.50
2022-08-28T12:34:19.308Z,98984.63
2022-08-28T12:36:52.150Z,98980.88
2022-08-28T12:39:23.554Z,98982.38
2022-08-28T12:41:52.377Z,98987.63
2022-08-28T12:44:24.869Z,98986.13
2022-08-28T12:46:54.301Z,98977.28
2022-08-28T12:49:31.477Z,98982.16
2022-08-28T12:52:11.521Z,98981.13
2022-08-28T12:54:47.284Z,98972.25
2022-08-28T12:57:18.211Z,98967.53
2022-08-28T12:59:47.831Z,98966.88
2022-08-28T13:02:22.999Z,98966.53
2022-08-28T13:04:57.422Z,98973.53
2022-08-28T13:07:29.508Z,98969.78
2022-08-28T13:10:01.519Z,98962.13
2022-08-28T13:12:55.092Z,98968.22
2022-08-28T13:15:43.205Z,98970.38
2022-08-28T13:18:12.624Z,98966.06
2022-08-28T13:20:42.216Z,98966.19
2022-08-28T13:23:29.601Z,98967.41
2022-08-28T13:26:17.400Z,98958.78
2022-08-28T13:28:59.845Z,98962.72
2022-08-28T13:31:32.760Z,98958.13
2022-08-28T13:34:21.301Z,98962.28
2022-08-28T13:36:52.775Z,98956.72
2022-08-28T13:39:23.487Z,98950.41
2022-08-28T13:41:55.856Z,98953.31
2022-08-28T13:44:28.504Z,98957.31
2022-08-28T13:46:57.487Z,98953.84
2022-08-28T13:49:28.475Z,98949.94
2022-08-28T13:51:59.538Z,98946.31
2022-08-28T13:54:29.496Z,98942.19
2022-08-28T14:00:52.075Z,98944.91
2022-08-28T14:03:40.721Z,98947.16
2022-08-28T14:06:11.796Z,98952.28
2022-08-28T14:08:41.493Z,98945.25
2022-08-28T14:11:12.860Z,98949.00
2022-08-28T14:13:46.949Z,98955.41
2022-08-28T14:16:27.194Z,98950.19
2022-08-28T14:18:56.257Z,98945.13
2022-08-28T14:21:26.687Z,98941.66
2022-08-28T14:23:55.837Z,98934.94
2022-08-28T14:26:24.358Z,98944.03
2022-08-28T14:28:53.491Z,98941.72
2022-08-28T14:31:26.378Z,98939.16
2022-08-28T14:33:59.187Z,98944.63
2022-08-28T14:36:30.035Z,98934.69
2022-08-28T14:39:02.812Z,98934.16
2022-08-28T14:41:34.694Z,98937.03
2022-08-28T14:44:03.856Z,98933.25
2022-08-28T14:46:34.171Z,98928.22
2022-08-28T14:49:06.275Z,98924.16
2022-08-28T14:51:35.951Z,98921.38
2022-08-28T14:54:05.297Z,98915.38
2022-08-28T14:56:33.923Z,98914.22
2022-08-28T14:59:16.724Z,98913.81
2022-08-28T15:01:48.127Z,98909.56
2022-08-28T15:04:19.998Z,98911.50
2022-08-28T15:06:49.062Z,98907.44
2022-08-28T15:09:18.036Z,98911.59
2022-08-28T15:11:53.011Z,98910.78
2022-08-28T15:20:32.271Z,98899.16
2022-08-28T15:23:08.029Z,98902.44
2022-08-28T15:25:43.284Z,98897.53
2022-08-28T15:28:20.129Z,98891.94
2022-08-28T15:30:52.465Z,98892.94
2022-08-28T15:33:21.321Z,98894.69
2022-08-28T15:35:57.107Z,98893.63
2022-08-28T15:38:26.526Z,98888.22
2022-08-28T15:41:13.460Z,98880.09
2022-08-28T15:43:43.064Z,98891.63
2022-08-28T15:46:16.613Z,98887.31
2022-08-28T15:48:48.621Z,98886.19
2022-08-28T15:52:20.834Z,98885.91
2022-08-28T15:54:56.239Z,98882.50
2022-08-28T15:57:29.721Z,98871.22
2022-08-28T15:59:58.436Z,98883.03
2022-08-28T16:02:28.326Z,98874.91
2022-08-28T16:04:58.491Z,98874.63
2022-08-28T16:07:27.982Z,98867.28
2022-08-28T16:09:59.134Z,98877.91
2022-08-28T16:12:33.860Z,98876.44
2022-08-28T16:15:02.947Z,98873.81
2022-08-28T16:17:32.136Z,98867.66
2022-08-28T16:20:01.653Z,98875.53
2022-08-28T16:26:29.757Z,98866.31
2022-08-28T16:29:22.764Z,98861.31
2022-08-28T16:32:27.893Z,98862.56
2022-08-28T16:38:48.656Z,98857.94
2022-08-28T16:41:35.604Z,98856.81
2022-08-28T16:44:04.779Z,98854.06
2022-08-28T16:47:21.736Z,98856.03
2022-08-28T16:49:50.933Z,98856.81
2022-08-28T16:52:22.255Z,98852.91
2022-08-28T16:55:27.703Z,98855.63
2022-08-28T16:57:58.175Z,98853.69
2022-08-28T17:00:28.009Z,98849.41
2022-08-28T17:02:57.070Z,98855.25
2022-08-28T17:05:26.949Z,98856.03
2022-08-28T17:07:57.782Z,98850.97
2022-08-28T17:10:27.336Z,98859.56
2022-08-28T17:12:56.807Z,98831.91
2022-08-28T17:15:28.477Z,98858.38
2022-08-28T17:17:58.300Z,98863.03
2022-08-28T17:20:44.688Z,98858.75
2022-08-28T17:23:13.783Z,98849.00
2022-08-28T17:25:42.675Z,98847.84
2022-08-28T17:28:11.971Z,98850.19
2022-08-28T17:30:42.484Z,98854.47
2022-08-28T17:33:10.905Z,98845.91
2022-08-28T17:35:41.865Z,98837.72
2022-08-28T17:38:11.191Z,98840.88
2022-08-28T17:40:40.338Z,98843.97
2022-08-28T17:43:08.967Z,98839.31
2022-08-28T17:45:38.076Z,98837.34
2022-08-28T17:48:08.880Z,98837.72
2022-08-28T17:50:38.687Z,98831.09
2022-08-28T17:53:07.220Z,98830.31
2022-08-28T17:55:35.964Z,98832.66
2022-08-28T17:58:05.816Z,98827.97
2022-08-28T18:00:34.920Z,98826.41
2022-08-28T18:03:04.176Z,98816.28
2022-08-28T18:05:34.195Z,98822.53
2022-08-28T18:08:02.819Z,98818.25
2022-08-28T18:10:34.176Z,98816.31
2022-08-28T18:13:02.553Z,98813.97
2022-08-28T18:15:30.980Z,98822.91
2022-08-28T18:17:59.645Z,98826.03
2022-08-28T18:20:29.443Z,98816.28
2022-08-28T18:23:00.484Z,98812.78
2022-08-28T18:25:50.644Z,98814.72
2022-08-28T18:28:22.353Z,98820.19
2022-08-28T18:30:52.316Z,98813.19
2022-08-28T18:33:22.391Z,98817.84
2022-08-28T18:35:51.100Z,98811.22
2022-08-28T18:38:23.384Z,98819.81
2022-08-28T18:40:52.086Z,98819.41
2022-08-28T18:43:22.455Z,98815.53
2022-08-28T18:45:57.597Z,98803.06
2022-08-28T18:48:26.887Z,98813.19
2022-08-28T18:50:56.254Z,98808.50
2022-08-28T18:53:29.238Z,98808.91
2022-08-28T18:56:00.651Z,98810.06
2022-08-28T18:58:32.510Z,98805.38
2022-08-28T19:01:02.424Z,98806.94
2022-08-28T19:03:31.230Z,98807.34
2022-08-28T19:05:59.901Z,98803.44
2022-08-28T19:08:30.501Z,98792.94
2022-08-28T19:11:02.935Z,98798.38
2022-08-28T19:13:31.645Z,98800.31
2022-08-28T19:16:00.634Z,98792.53
2022-08-28T19:18:30.479Z,98792.94
2022-08-28T19:21:08.019Z,98792.50
2022-08-28T19:23:38.629Z,98791.72
2022-08-28T19:26:10.633Z,98794.84
2022-08-28T19:28:40.888Z,98789.00
2022-08-28T19:31:13.753Z,98797.53
2022-08-28T19:33:43.695Z,98788.97
2022-08-28T19:36:12.744Z,98791.69
2022-08-28T19:38:43.289Z,98792.47
2022-08-28T19:41:14.776Z,98794.00
2022-08-28T19:43:44.666Z,98785.84
2022-08-28T19:46:19.655Z,98792.44
2022-08-28T19:48:49.200Z,98791.28
2022-08-28T19:51:22.536Z,98786.97
2022-08-28T19:53:57.776Z,98783.84
2022-08-28T19:56:27.800Z,98785.81
2022-08-28T19:58:57.130Z,98794.72
2022-08-28T20:01:25.839Z,98788.50
2022-08-28T20:03:54.867Z,98782.25
2022-08-28T20:06:23.757Z,98776.03
2022-08-28T20:08:54.511Z,98777.16
2022-08-28T20:11:25.611Z,98772.44
2022-08-28T20:14:04.405Z,98779.03
2022-08-28T20:16:35.011Z,98785.63
2022-08-28T20:19:04.476Z,98783.22
2022-08-28T20:21:37.358Z,98795.59
2022-08-28T20:24:09.914Z,98784.69
2022-08-28T20:26:39.351Z,98788.53
2022-08-28T20:29:10.825Z,98779.16
2022-08-28T20:31:43.851Z,98768.25
2022-08-28T20:34:14.308Z,98777.16
2022-08-28T20:36:43.231Z,98777.16
2022-08-28T20:39:13.899Z,98774.38
2022-08-28T20:41:43.386Z,98777.88
2022-08-28T20:44:13.784Z,98780.19
2022-08-28T20:46:43.231Z,98777.09
2022-08-28T20:49:13.001Z,98765.41
2022-08-28T20:52:01.340Z,98765.38
2022-08-28T20:54:39.476Z,98768.06
2022-08-28T20:57:17.452Z,98767.63
2022-08-28T20:59:50.195Z,98763.72
2022-08-28T21:02:20.505Z,98762.88
2022-08-28T21:04:49.622Z,98763.25
2022-08-28T21:07:19.697Z,98765.53
2022-08-28T21:10:05.589Z,98763.19
2022-08-28T21:12:36.249Z,98755.03
2022-08-28T21:15:05.896Z,98756.13
2022-08-28T21:17:34.446Z,98757.63
2022-08-28T21:20:04.474Z,98755.25
2022-08-28T21:22:34.567Z,98755.63
2022-08-28T21:25:06.490Z,98751.25
2022-08-28T21:27:36.580Z,98748.09
2022-08-28T21:30:07.705Z,98745.75
2022-08-28T21:32:36.700Z,98744.91
2022-08-28T21:35:07.353Z,98736.34
2022-08-28T21:37:36.274Z,98735.19
2022-08-28T21:40:07.923Z,98738.25
2022-08-28T21:42:36.847Z,98735.50
2022-08-28T21:45:11.235Z,98730.41
2022-08-28T21:47:41.465Z,98736.13
2022-08-28T21:50:11.670Z,98726.75
2022-08-28T21:52:41.004Z,98738.63
2022-08-28T21:55:12.699Z,98724.84
2022-08-28T21:57:41.792Z,98731.66
2022-08-28T22:00:13.953Z,98728.81
2022-08-28T22:02:47.479Z,98720.53
2022-08-28T22:05:20.881Z,98724.72
2022-08-28T22:07:50.063Z,98714.19
2022-08-28T22:10:20.395Z,98715.25
2022-08-28T22:12:50.265Z,98717.16
2022-08-28T22:15:18.927Z,98711.38
2022-08-28T22:17:47.589Z,98719.13
2022-08-28T22:20:16.128Z,98709.50
2022-08-28T22:23:01.787Z,98709.91
2022-08-28T22:25:32.032Z,98712.66
2022-08-28T22:28:11.923Z,98700.38
2022-08-28T22:30:40.435Z,98707.38
2022-08-28T22:33:10.942Z,98700.00
2022-08-28T22:35:42.177Z,98697.28
2022-08-28T22:38:13.092Z,98699.59
2022-08-28T22:40:43.662Z,98696.38
2022-08-28T22:43:12.659Z,98697.84
2022-08-28T22:45:40.919Z,98696.16
2022-08-28T22:48:10.491Z,98692.63
2022-08-28T22:50:38.971Z,98686.81
2022-08-28T22:53:09.121Z,98676.66
2022-08-28T22:55:41.433Z,98681.16
2022-08-28T22:58:14.403Z,98680.56
2022-08-28T23:00:44.218Z,98675.44
2022-08-28T23:03:13.203Z,98677.25
2022-08-28T23:05:42.380Z,98677.50
2022-08-28T23:08:11.687Z,98682.91
2022-08-28T23:10:57.935Z,98673.59
2022-08-28T23:13:28.743Z,98675.06
2022-08-28T23:15:57.372Z,98676.22
2022-08-28T23:18:27.759Z,98668.09
2022-08-28T23:20:56.912Z,98663.44
2022-08-28T23:23:26.707Z,98668.44
2022-08-28T23:25:55.454Z,98661.47
2022-08-28T23:31:28.282Z,98664.09
2022-08-28T23:33:56.659Z,98659.41
2022-08-28T23:36:25.978Z,98651.63
2022-08-28T23:38:54.501Z,98664.72
2022-08-28T23:41:23.969Z,98656.19
2022-08-28T23:43:52.657Z,98650.25
2022-08-28T23:46:21.824Z,98649.84
2022-08-28T23:48:52.467Z,98649.84
2022-08-28T23:51:22.109Z,98651.75
2022-08-28T23:53:51.372Z,98646.28
2022-08-28T23:56:20.292Z,98643.50
2022-08-28T23:58:51.017Z,98647.78
